Time;durP1;ratioP1;P1;durP2;ratioP2;P2;SDS_P1;SDS_P2;PMS_P1;PMS_P2;Temp;Humidity;BMP_temperature;BMP_pressure;BME280_temperature;BME280_humidity;BME280_pressure;Samples;Min_cycle;Max_cycle;Signal;HPM_P1;HPM_P2
2022/05/09 00:01:05;;;;;;;7.82;7.13;;;21.70;83.50;;;;;;5903723;29;89189;-69
2022/05/09 00:04:07;;;;;;;7.55;6.80;;;21.70;83.40;;;;;;5905472;29;88877;-69
2022/05/09 00:07:09;;;;;;;8.18;7.38;;;21.70;83.50;;;;;;5913702;29;89050;-69
2022/05/09 00:10:13;;;;;;;7.90;7.20;;;21.70;83.30;;;;;;5904190;29;89171;-68
2022/05/09 00:13:15;;;;;;;8.02;7.32;;;21.70;83.30;;;;;;5906964;29;89308;-68
2022/05/09 00:16:18;;;;;;;8.15;7.38;;;21.70;83.30;;;;;;5905252;29;89212;-68
2022/05/09 00:19:22;;;;;;;8.45;7.72;;;21.70;83.20;;;;;;5915305;29;89090;-68
2022/05/09 00:22:24;;;;;;;8.85;7.95;;;21.70;83.30;;;;;;5903709;29;88011;-69
2022/05/09 00:25:27;;;;;;;9.05;8.25;;;21.70;83.30;;;;;;5903563;29;88683;-69
2022/05/09 00:28:30;;;;;;;8.38;7.68;;;21.70;83.30;;;;;;5926320;29;88351;-68
2022/05/09 00:31:33;;;;;;;8.48;7.68;;;21.70;83.30;;;;;;5913884;29;89079;-68
2022/05/09 00:34:37;;;;;;;8.88;8.07;;;21.70;83.30;;;;;;5905377;29;90074;-69
2022/05/09 00:37:40;;;;;;;9.10;8.20;;;21.70;83.40;;;;;;5903831;29;88265;-69
2022/05/09 00:41:28;;;;;;;8.90;8.10;;;21.70;83.40;;;;;;5910160;29;89474;-69
2022/05/09 00:44:09;;;;;;;8.98;8.18;;;21.70;83.40;;;;;;5905407;29;88747;-68
2022/05/09 00:47:12;;;;;;;8.73;7.93;;;21.70;83.40;;;;;;5913138;29;89533;-69
2022/05/09 00:50:23;;;;;;;8.50;7.70;;;21.70;83.40;;;;;;5905428;29;89113;-69
2022/05/09 00:53:26;;;;;;;8.95;8.15;;;21.70;83.40;;;;;;5902631;29;89113;-69
2022/05/09 00:56:35;;;;;;;9.00;8.20;;;21.60;83.30;;;;;;5903187;29;88394;-69
2022/05/09 00:59:40;;;;;;;8.63;7.82;;;21.70;83.30;;;;;;5914707;29;89018;-69
2022/05/09 01:02:46;;;;;;;9.48;8.57;;;21.70;83.20;;;;;;5920383;29;89305;-68
2022/05/09 01:05:51;;;;;;;9.30;8.40;;;21.70;83.30;;;;;;5907783;29;90224;-68
2022/05/09 01:08:53;;;;;;;9.18;8.38;;;21.70;83.20;;;;;;5906780;29;89074;-68
2022/05/09 01:11:55;;;;;;;8.85;8.05;;;21.70;83.20;;;;;;5913468;29;89210;-68
2022/05/09 01:14:59;;;;;;;10.13;9.23;;;21.70;83.20;;;;;;5913701;29;89008;-68
2022/05/09 01:18:07;;;;;;;9.48;8.57;;;21.70;83.30;;;;;;5915892;29;87994;-68
2022/05/09 01:21:29;;;;;;;9.35;8.55;;;21.70;83.30;;;;;;5902944;29;88913;-68
2022/05/09 01:24:32;;;;;;;9.40;8.50;;;21.70;83.30;;;;;;5899110;29;89016;-68
2022/05/09 01:27:35;;;;;;;9.57;8.70;;;21.70;83.30;;;;;;5913023;29;88435;-68
2022/05/09 01:30:46;;;;;;;9.45;8.60;;;21.70;83.30;;;;;;5918721;29;89082;-68
2022/05/09 01:33:51;;;;;;;9.82;8.93;;;21.70;83.30;;;;;;5892472;29;88020;-68
2022/05/09 01:37:03;;;;;;;10.07;9.18;;;21.60;83.30;;;;;;5893930;29;90016;-69
2022/05/09 01:40:06;;;;;;;9.60;8.70;;;21.60;83.30;;;;;;5900829;29;88120;-69
2022/05/09 01:43:09;;;;;;;9.35;8.55;;;21.60;83.30;;;;;;5893073;29;89204;-67
2022/05/09 01:46:13;;;;;;;9.32;8.43;;;21.70;83.20;;;;;;5913918;29;89082;-68
2022/05/09 01:49:32;;;;;;;8.93;8.13;;;21.70;83.20;;;;;;5913756;29;89097;-69
2022/05/09 01:52:36;;;;;;;9.18;8.38;;;21.70;83.20;;;;;;5902299;29;89115;-69
2022/05/09 01:55:38;;;;;;;9.30;8.50;;;21.70;83.20;;;;;;5902393;29;89073;-69
2022/05/09 01:58:40;;;;;;;9.02;8.20;;;21.70;83.20;;;;;;5901265;29;88576;-69
2022/05/09 02:01:44;;;;;;;9.00;8.20;;;21.70;83.20;;;;;;5901729;29;89093;-68
2022/05/09 02:04:47;;;;;;;9.25;8.45;;;21.70;83.20;;;;;;5909550;29;89065;-68
2022/05/09 02:07:50;;;;;;;9.02;8.23;;;21.70;83.20;;;;;;5906593;29;90153;-69
2022/05/09 02:10:52;;;;;;;9.63;8.73;;;21.70;83.20;;;;;;5902188;29;89004;-69
2022/05/09 02:13:54;;;;;;;9.52;8.63;;;21.70;83.30;;;;;;5905721;29;89172;-68
2022/05/09 02:16:56;;;;;;;9.50;8.70;;;21.70;83.30;;;;;;5914468;29;88750;-69
2022/05/09 02:19:58;;;;;;;9.20;8.40;;;21.70;83.30;;;;;;5922635;29;89138;-69
2022/05/09 02:23:01;;;;;;;9.07;8.27;;;21.60;83.20;;;;;;5911450;29;88723;-68
2022/05/09 02:26:04;;;;;;;9.77;8.88;;;21.60;83.30;;;;;;5914880;29;89560;-69
2022/05/09 02:29:06;;;;;;;9.15;8.25;;;21.60;83.20;;;;;;5890799;29;88233;-69
2022/05/09 02:32:09;;;;;;;9.02;8.23;;;21.60;83.20;;;;;;5906767;29;89089;-69
2022/05/09 02:35:11;;;;;;;9.38;8.48;;;21.60;83.20;;;;;;5906442;29;89115;-68
2022/05/09 02:38:14;;;;;;;8.70;7.90;;;21.60;83.20;;;;;;5909451;29;90067;-69
2022/05/09 02:41:16;;;;;;;9.15;8.35;;;21.70;83.20;;;;;;5912233;29;87969;-69
2022/05/09 02:44:18;;;;;;;8.93;8.18;;;21.70;83.20;;;;;;5902346;29;89142;-69
2022/05/09 02:47:20;;;;;;;8.88;8.07;;;21.70;83.20;;;;;;5913143;29;89114;-69
2022/05/09 02:50:23;;;;;;;8.50;7.80;;;21.60;83.20;;;;;;5919658;29;89057;-69
2022/05/09 02:53:27;;;;;;;8.68;7.95;;;21.60;83.20;;;;;;5902852;29;89419;-69
2022/05/09 02:56:29;;;;;;;8.63;7.90;;;21.70;83.20;;;;;;5917229;29;89250;-69
2022/05/09 02:59:31;;;;;;;8.98;8.18;;;21.70;83.20;;;;;;5900947;29;88383;-68
2022/05/09 03:02:33;;;;;;;8.75;7.95;;;21.70;83.30;;;;;;5911208;29;89125;-68
2022/05/09 03:05:35;;;;;;;8.82;8.02;;;21.60;83.20;;;;;;5911630;29;89167;-67
2022/05/09 03:08:39;;;;;;;8.70;7.88;;;21.60;83.20;;;;;;5903552;29;88859;-67
2022/05/09 03:11:45;;;;;;;8.73;7.82;;;21.60;83.20;;;;;;5903577;29;89157;-69
2022/05/09 03:14:47;;;;;;;8.88;8.07;;;21.60;83.30;;;;;;5913477;29;89136;-68
2022/05/09 03:17:49;;;;;;;8.43;7.63;;;21.60;83.30;;;;;;5889492;29;89235;-68
2022/05/09 03:20:52;;;;;;;7.97;7.28;;;21.60;83.20;;;;;;5898381;29;88987;-69
2022/05/09 03:23:55;;;;;;;8.73;7.93;;;21.60;83.20;;;;;;5902982;29;89044;-67
2022/05/09 03:26:59;;;;;;;7.97;7.28;;;21.60;83.20;;;;;;5916850;29;89179;-68
2022/05/09 03:30:01;;;;;;;8.70;7.90;;;21.60;83.20;;;;;;5905042;29;87321;-68
2022/05/09 03:33:03;;;;;;;8.18;7.47;;;21.60;83.10;;;;;;5904693;29;89119;-69
2022/05/09 03:36:06;;;;;;;8.65;7.88;;;21.60;83.00;;;;;;5916393;29;89052;-68
2022/05/09 03:39:09;;;;;;;8.05;7.35;;;21.60;83.00;;;;;;5903744;29;90649;-68
2022/05/09 03:42:11;;;;;;;8.05;7.35;;;21.60;83.00;;;;;;5903705;29;89445;-69
2022/05/09 03:45:13;;;;;;;8.57;7.78;;;21.60;83.00;;;;;;5907375;29;89026;-67
2022/05/09 03:48:15;;;;;;;8.00;7.30;;;21.60;83.10;;;;;;5904919;29;88338;-69
2022/05/09 03:51:17;;;;;;;7.90;7.20;;;21.60;83.10;;;;;;5915434;29;89156;-69
2022/05/09 03:54:21;;;;;;;8.32;7.63;;;21.60;83.10;;;;;;5903297;29;89091;-69
2022/05/09 03:57:23;;;;;;;7.95;7.25;;;21.60;83.20;;;;;;5903944;29;89414;-69
2022/05/09 04:00:27;;;;;;;7.97;7.28;;;21.50;83.10;;;;;;5912893;29;88957;-69
2022/05/09 04:03:30;;;;;;;8.13;7.43;;;21.60;83.20;;;;;;5907450;29;89247;-69
2022/05/09 04:06:33;;;;;;;7.57;6.95;;;21.60;83.20;;;;;;5922022;29;89476;-69
2022/05/09 04:09:37;;;;;;;8.18;7.47;;;21.60;83.20;;;;;;5909338;29;90342;-69
2022/05/09 04:12:39;;;;;;;7.65;6.97;;;21.60;83.20;;;;;;5906301;29;89024;-69
2022/05/09 04:19:22;;;;;;;7.65;6.95;;;21.60;83.10;;;;;;5898420;29;87393;-69
2022/05/09 04:22:24;;;;;;;8.00;7.30;;;21.60;83.10;;;;;;5898020;29;88125;-68
2022/05/09 04:25:31;;;;;;;7.80;7.10;;;21.60;83.10;;;;;;5915621;29;89117;-69
2022/05/09 04:28:33;;;;;;;7.90;7.15;;;21.60;83.00;;;;;;5915547;29;88114;-68
2022/05/09 04:31:35;;;;;;;7.45;6.85;;;21.60;83.10;;;;;;5911634;29;88474;-68
2022/05/09 04:34:37;;;;;;;7.82;7.13;;;21.60;83.10;;;;;;5912914;29;89108;-69
2022/05/09 04:37:42;;;;;;;7.32;6.72;;;21.60;83.10;;;;;;5913358;29;89090;-68
2022/05/09 04:40:47;;;;;;;7.60;6.97;;;21.60;83.20;;;;;;5908708;29;90079;-68
2022/05/09 04:43:50;;;;;;;7.55;6.85;;;21.60;83.20;;;;;;5902788;29;89151;-69
2022/05/09 04:46:52;;;;;;;7.32;6.68;;;21.60;83.20;;;;;;5908797;29;89009;-68
2022/05/09 04:49:53;;;;;;;7.20;6.55;;;21.60;83.20;;;;;;5924481;29;89471;-69
2022/05/09 04:52:56;;;;;;;7.53;6.93;;;21.60;83.20;;;;;;5914995;29;89118;-69
2022/05/09 04:56:00;;;;;;;7.50;6.80;;;21.60;83.10;;;;;;5902604;29;89127;-68
2022/05/09 04:59:01;;;;;;;7.43;6.82;;;21.60;83.00;;;;;;5914429;29;89159;-69
2022/05/09 05:02:05;;;;;;;7.32;6.72;;;21.60;83.00;;;;;;5902976;29;88477;-68
2022/05/09 05:05:09;;;;;;;7.32;6.72;;;21.70;83.00;;;;;;5902760;29;89340;-69
2022/05/09 05:08:13;;;;;;;6.90;6.30;;;21.70;82.90;;;;;;5902670;29;89401;-69
2022/05/09 05:11:16;;;;;;;7.03;6.43;;;21.70;82.90;;;;;;5914389;29;89991;-68
2022/05/09 05:14:18;;;;;;;7.25;6.65;;;21.70;82.90;;;;;;5906878;29;89064;-67
2022/05/09 05:17:20;;;;;;;7.40;6.80;;;21.70;83.00;;;;;;5913619;29;89273;-68
2022/05/09 05:20:23;;;;;;;7.38;6.78;;;21.60;82.90;;;;;;5911549;29;89114;-69
2022/05/09 05:23:25;;;;;;;7.13;6.53;;;21.60;83.00;;;;;;5908292;29;89442;-69
2022/05/09 05:26:28;;;;;;;7.38;6.78;;;21.70;83.10;;;;;;5901569;29;89107;-68
2022/05/09 05:29:30;;;;;;;7.25;6.65;;;21.60;83.00;;;;;;5912878;29;89220;-68
2022/05/09 05:32:36;;;;;;;7.00;6.43;;;21.60;83.00;;;;;;5910191;29;88367;-69
2022/05/09 05:35:38;;;;;;;6.80;6.20;;;21.60;83.20;;;;;;5902734;29;89218;-68
2022/05/09 05:38:40;;;;;;;7.03;6.43;;;21.60;83.20;;;;;;5914388;29;89204;-68
2022/05/09 05:41:43;;;;;;;6.90;6.30;;;21.60;83.20;;;;;;5902186;29;89887;-69
2022/05/09 05:44:46;;;;;;;6.65;6.13;;;21.60;83.20;;;;;;5892927;29;89013;-68
2022/05/09 05:47:49;;;;;;;7.07;6.47;;;21.60;83.20;;;;;;5911914;29;89374;-69
2022/05/09 05:50:52;;;;;;;7.00;6.40;;;21.60;83.20;;;;;;5904866;29;89102;-69
2022/05/09 05:53:54;;;;;;;6.63;6.03;;;21.60;83.10;;;;;;5909539;29;89402;-69
2022/05/09 05:56:57;;;;;;;7.00;6.40;;;21.60;83.00;;;;;;5912313;29;89190;-69
2022/05/09 06:00:02;;;;;;;6.68;6.07;;;21.60;83.00;;;;;;5908005;29;89038;-68
2022/05/09 06:03:06;;;;;;;6.30;5.80;;;21.60;83.00;;;;;;5906559;29;88397;-69
2022/05/09 06:06:08;;;;;;;7.03;6.43;;;21.60;83.00;;;;;;5921599;29;89277;-69
2022/05/09 06:09:11;;;;;;;6.68;6.15;;;21.70;83.10;;;;;;5902668;29;89186;-68
2022/05/09 06:12:16;;;;;;;7.07;6.47;;;21.70;83.10;;;;;;5911336;29;90377;-68
2022/05/09 06:15:31;;;;;;;6.95;6.35;;;21.60;83.10;;;;;;5901643;29;89087;-68
2022/05/09 06:18:34;;;;;;;6.60;6.00;;;21.60;83.10;;;;;;5903294;29;89597;-68
2022/05/09 06:21:37;;;;;;;6.40;5.90;;;21.60;83.10;;;;;;5899736;29;89358;-68
2022/05/09 06:24:39;;;;;;;6.45;5.90;;;21.60;83.20;;;;;;5914687;29;89291;-69
2022/05/09 06:27:42;;;;;;;6.97;6.38;;;21.60;83.20;;;;;;5914034;29;89094;-68
2022/05/09 06:30:45;;;;;;;6.45;5.90;;;21.60;83.30;;;;;;5913539;29;89088;-68
2022/05/09 06:33:47;;;;;;;6.90;6.30;;;21.60;83.30;;;;;;5901884;29;88359;-67
2022/05/09 06:36:49;;;;;;;6.35;5.85;;;21.60;83.30;;;;;;5901605;29;89455;-68
2022/05/09 06:39:53;;;;;;;6.70;6.10;;;21.60;83.20;;;;;;5901487;29;89180;-68
2022/05/09 06:42:57;;;;;;;6.55;6.05;;;21.60;83.30;;;;;;5898619;29;88633;-68
2022/05/09 06:45:59;;;;;;;6.38;5.88;;;21.70;83.20;;;;;;5915659;29;89109;-68
2022/05/09 06:49:02;;;;;;;6.18;5.68;;;21.70;83.10;;;;;;5911847;29;89024;-68
2022/05/09 06:52:04;;;;;;;6.25;5.70;;;21.70;83.10;;;;;;5894914;29;89152;-68
2022/05/09 06:55:07;;;;;;;6.35;5.85;;;21.60;83.00;;;;;;5913184;29;89164;-68
2022/05/09 06:58:13;;;;;;;6.25;5.75;;;21.70;83.10;;;;;;5901270;29;87981;-68
2022/05/09 07:01:17;;;;;;;6.18;5.68;;;21.70;83.10;;;;;;5916976;29;89177;-67
2022/05/09 07:04:19;;;;;;;6.90;6.35;;;21.60;83.10;;;;;;5904997;29;88399;-68
2022/05/09 07:07:21;;;;;;;6.28;5.78;;;21.60;83.10;;;;;;5905244;29;88967;-68
2022/05/09 07:10:26;;;;;;;6.28;5.68;;;21.60;83.20;;;;;;5904682;29;89201;-68
2022/05/09 07:13:29;;;;;;;6.22;5.72;;;21.60;83.20;;;;;;5903987;29;90015;-68
2022/05/09 07:16:31;;;;;;;6.35;5.82;;;21.60;83.20;;;;;;5916550;29;89163;-68
2022/05/09 07:19:33;;;;;;;5.72;5.30;;;21.60;83.20;;;;;;5904619;29;89336;-68
2022/05/09 07:22:35;;;;;;;6.00;5.40;;;21.60;83.20;;;;;;5904986;29;89187;-68
2022/05/09 07:25:38;;;;;;;6.03;5.53;;;21.60;83.20;;;;;;5915241;29;89384;-69
2022/05/09 07:28:42;;;;;;;6.55;5.90;;;21.60;83.20;;;;;;5916787;29;89454;-68
2022/05/09 07:31:44;;;;;;;5.65;5.15;;;21.60;83.10;;;;;;5913498;29;89197;-69
2022/05/09 07:34:48;;;;;;;6.13;5.63;;;21.60;83.10;;;;;;5906710;29;88658;-68
2022/05/09 07:37:51;;;;;;;6.00;5.50;;;21.70;83.00;;;;;;5916459;29;87975;-67
2022/05/09 07:40:54;;;;;;;5.88;5.38;;;21.70;83.00;;;;;;5904207;29;89112;-69
2022/05/09 07:43:57;;;;;;;6.05;5.55;;;21.70;83.00;;;;;;5903203;29;90387;-69
2022/05/09 07:46:59;;;;;;;5.70;5.20;;;21.70;83.00;;;;;;5907748;29;89124;-68
2022/05/09 07:50:01;;;;;;;5.97;5.47;;;21.70;83.10;;;;;;5906263;29;89099;-68
2022/05/09 07:53:09;;;;;;;5.38;4.95;;;21.60;83.00;;;;;;5914687;29;89029;-68
2022/05/09 07:56:11;;;;;;;5.68;5.18;;;21.70;83.10;;;;;;5913994;29;89146;-69
2022/05/09 07:59:16;;;;;;;6.18;5.68;;;21.70;83.20;;;;;;5915487;29;89268;-69
2022/05/09 08:05:38;;;;;;;5.70;5.22;;;21.70;83.20;;;;;;5904085;29;87061;-69
2022/05/09 08:08:42;;;;;;;6.20;5.70;;;21.60;83.20;;;;;;5903238;29;87952;-70
2022/05/09 08:11:45;;;;;;;5.95;5.50;;;21.60;83.20;;;;;;5904082;29;88788;-69
2022/05/09 08:14:48;;;;;;;6.13;5.63;;;21.70;83.20;;;;;;5914957;29;89994;-69
2022/05/09 08:17:51;;;;;;;5.90;5.40;;;21.70;83.20;;;;;;5915788;29;88866;-70
2022/05/09 08:20:55;;;;;;;5.80;5.30;;;21.70;83.10;;;;;;5904717;29;89081;-70
2022/05/09 08:24:00;;;;;;;6.20;5.60;;;21.70;83.10;;;;;;5914897;29;88003;-69
2022/05/09 08:27:01;;;;;;;5.70;5.20;;;21.70;83.00;;;;;;5903970;29;89504;-69
2022/05/09 08:41:59;;;;;;;5.43;5.03;;;21.70;83.00;;;;;;5921976;29;88430;-68
2022/05/09 08:45:25;;;;;;;5.78;5.28;;;21.70;83.20;;;;;;5907089;29;88724;-68
2022/05/09 08:48:52;;;;;;;5.05;4.65;;;21.70;83.20;;;;;;5907204;29;88935;-68
2022/05/09 08:52:00;;;;;;;5.53;5.13;;;21.70;83.20;;;;;;5902955;29;89143;-69
2022/05/09 08:55:04;;;;;;;5.28;4.88;;;21.70;83.20;;;;;;5906688;29;89106;-68
2022/05/09 08:58:19;;;;;;;5.57;5.18;;;21.70;83.20;;;;;;5907513;29;89582;-68
2022/05/09 09:01:27;;;;;;;5.50;5.10;;;21.70;83.20;;;;;;5906010;29;87962;-69
2022/05/09 09:04:31;;;;;;;5.50;5.00;;;21.70;83.30;;;;;;5910583;29;87957;-68
2022/05/09 09:07:52;;;;;;;5.38;4.97;;;21.70;83.20;;;;;;5902871;29;89366;-68
2022/05/09 09:11:04;;;;;;;5.75;5.25;;;21.70;83.20;;;;;;5902929;29;88355;-68
2022/05/09 09:14:15;;;;;;;5.15;4.65;;;21.70;83.20;;;;;;5907692;29;89077;-68
2022/05/09 09:17:29;;;;;;;5.30;4.80;;;21.80;83.20;;;;;;5917267;29;87818;-68
2022/05/09 09:20:36;;;;;;;5.30;4.90;;;21.80;83.20;;;;;;5921350;29;90248;-69
2022/05/09 09:23:54;;;;;;;5.50;5.05;;;21.80;83.20;;;;;;5909793;29;89126;-68
2022/05/09 09:27:05;;;;;;;4.95;4.55;;;21.80;83.30;;;;;;5915792;29;88994;-68
2022/05/09 09:30:12;;;;;;;4.88;4.47;;;21.80;83.30;;;;;;5912281;29;89286;-69
2022/05/09 09:33:16;;;;;;;5.28;4.88;;;21.70;83.30;;;;;;5916763;29;88753;-68
2022/05/09 09:36:20;;;;;;;5.35;4.90;;;21.80;83.30;;;;;;5902392;29;89109;-67
2022/05/09 09:39:22;;;;;;;5.47;4.97;;;21.80;83.30;;;;;;5902103;29;89103;-68
2022/05/09 09:42:24;;;;;;;5.40;5.00;;;21.70;83.30;;;;;;5902595;29;88549;-68
2022/05/09 09:45:33;;;;;;;5.30;4.90;;;21.70;83.30;;;;;;5905527;29;89013;-68
2022/05/09 09:48:35;;;;;;;5.30;4.90;;;21.70;83.30;;;;;;5913661;29;89076;-69
2022/05/09 09:51:48;;;;;;;5.22;4.82;;;21.70;83.30;;;;;;5902301;29;90084;-69
2022/05/09 09:54:56;;;;;;;5.03;4.63;;;21.80;83.40;;;;;;5902347;29;89239;-69
2022/05/09 09:58:18;;;;;;;5.07;4.68;;;21.70;83.30;;;;;;5901927;29;89417;-69
2022/05/09 10:01:25;;;;;;;5.10;4.70;;;21.70;83.30;;;;;;5901974;29;89209;-69
2022/05/09 10:04:29;;;;;;;5.30;4.80;;;21.70;83.30;;;;;;5913685;29;89122;-69
2022/05/09 10:07:33;;;;;;;5.03;4.63;;;21.70;83.30;;;;;;5914149;29;87828;-68
2022/05/09 10:10:36;;;;;;;5.18;4.78;;;21.80;83.30;;;;;;5901961;29;89171;-69
2022/05/09 10:13:42;;;;;;;5.30;4.90;;;21.70;83.30;;;;;;5914228;29;87609;-69
2022/05/09 10:16:48;;;;;;;4.80;4.40;;;21.80;83.30;;;;;;5912196;29;89097;-68
2022/05/09 10:19:51;;;;;;;4.95;4.55;;;21.80;83.40;;;;;;5903119;29;89080;-69
2022/05/09 10:26:23;;;;;;;5.07;4.68;;;21.80;83.50;;;;;;5884697;29;87930;-69
2022/05/09 10:29:30;;;;;;;5.40;4.90;;;21.80;83.50;;;;;;5905119;29;90018;-69
2022/05/09 10:32:42;;;;;;;5.15;4.75;;;21.80;83.50;;;;;;5908859;29;89062;-69
2022/05/09 10:35:51;;;;;;;5.10;4.70;;;21.70;83.30;;;;;;5905282;29;89551;-68
2022/05/09 10:39:06;;;;;;;4.97;4.57;;;21.80;83.50;;;;;;5905335;29;89153;-68
2022/05/09 10:42:10;;;;;;;5.30;4.90;;;21.80;83.50;;;;;;5905305;29;89120;-68
2022/05/09 10:45:17;;;;;;;5.00;4.60;;;21.80;83.50;;;;;;5909316;29;88592;-68
2022/05/09 10:48:29;;;;;;;4.53;4.18;;;21.80;83.50;;;;;;5916950;29;89136;-67
2022/05/09 10:51:35;;;;;;;4.95;4.55;;;21.70;83.30;;;;;;5905713;29;89047;-68
2022/05/09 10:54:46;;;;;;;4.63;4.22;;;21.80;83.30;;;;;;5904574;29;90070;-68
2022/05/09 10:57:56;;;;;;;5.38;4.88;;;21.80;83.40;;;;;;5898697;29;88314;-68
2022/05/09 11:01:04;;;;;;;5.47;5.00;;;21.80;83.40;;;;;;5915412;29;89405;-68
2022/05/09 11:04:08;;;;;;;4.95;4.55;;;21.80;83.30;;;;;;5905307;29;89226;-68
2022/05/09 11:07:23;;;;;;;4.80;4.40;;;21.80;83.30;;;;;;5893358;29;89439;-68
2022/05/09 11:10:32;;;;;;;5.10;4.60;;;21.80;83.30;;;;;;5893633;29;89408;-68
2022/05/09 11:13:50;;;;;;;5.13;4.72;;;21.80;83.30;;;;;;5905283;29;89118;-68
2022/05/09 11:17:10;;;;;;;4.80;4.40;;;21.80;83.30;;;;;;5894161;29;88381;-68
2022/05/09 11:20:23;;;;;;;4.80;4.40;;;21.80;83.30;;;;;;5883136;29;87935;-69
2022/05/09 11:23:33;;;;;;;4.55;4.25;;;21.80;83.30;;;;;;5912047;29;89105;-68
2022/05/09 11:26:47;;;;;;;4.80;4.40;;;21.80;83.30;;;;;;5907934;29;89964;-69
2022/05/09 11:29:58;;;;;;;4.82;4.43;;;21.80;83.30;;;;;;5904651;29;89281;-68
2022/05/09 11:33:28;;;;;;;4.72;4.40;;;21.80;83.40;;;;;;5904834;29;89076;-68
2022/05/09 11:36:49;;;;;;;5.07;4.68;;;21.80;83.30;;;;;;5904769;29;89076;-68
2022/05/09 11:40:02;;;;;;;4.45;4.15;;;21.80;83.30;;;;;;5904026;29;89123;-68
2022/05/09 11:43:32;;;;;;;4.72;4.32;;;21.80;83.30;;;;;;5914072;29;89075;-69
2022/05/09 11:46:46;;;;;;;5.00;4.60;;;21.80;83.20;;;;;;5907380;29;88973;-68
2022/05/09 11:50:18;;;;;;;4.88;4.47;;;21.80;83.20;;;;;;5910643;29;88490;-69
2022/05/09 11:53:27;;;;;;;4.75;4.35;;;21.80;83.20;;;;;;5904406;29;89167;-68
2022/05/09 11:56:31;;;;;;;4.35;4.05;;;21.80;83.20;;;;;;5906520;29;87886;-69
2022/05/09 11:59:35;;;;;;;4.82;4.53;;;21.80;83.20;;;;;;5914547;29;88908;-68
2022/05/09 12:02:50;;;;;;;4.68;4.28;;;21.80;83.20;;;;;;5914321;29;88455;-69
2022/05/09 12:06:00;;;;;;;5.00;4.60;;;21.80;83.20;;;;;;5904334;29;89176;-69
2022/05/09 12:09:08;;;;;;;5.10;4.70;;;21.80;83.10;;;;;;5914919;29;89142;-69
2022/05/09 12:12:30;;;;;;;4.50;4.20;;;21.80;83.10;;;;;;5926854;29;88998;-69
2022/05/09 12:15:48;;;;;;;4.70;4.40;;;21.80;83.00;;;;;;5896027;29;89195;-68
2022/05/09 12:18:55;;;;;;;4.57;4.28;;;21.80;83.00;;;;;;5913714;29;89096;-68
2022/05/09 12:22:34;;;;;;;4.78;4.38;;;21.80;83.10;;;;;;5914742;29;88359;-69
2022/05/09 12:26:03;;;;;;;4.75;4.35;;;21.80;83.00;;;;;;5908282;29;89154;-69
2022/05/09 12:29:24;;;;;;;5.10;4.70;;;21.80;83.00;;;;;;5899914;29;89178;-68
2022/05/09 12:32:26;;;;;;;4.97;4.57;;;21.80;83.00;;;;;;5903014;29;89305;-69
2022/05/09 12:35:29;;;;;;;4.53;4.18;;;21.90;82.90;;;;;;5903781;29;89078;-69
2022/05/09 12:38:35;;;;;;;4.72;4.32;;;21.80;82.80;;;;;;5903890;29;89182;-69
2022/05/09 12:41:45;;;;;;;4.88;4.47;;;21.80;82.70;;;;;;5892551;29;89098;-69
2022/05/09 12:44:50;;;;;;;4.65;4.35;;;21.80;82.70;;;;;;5906156;29;89051;-68
2022/05/09 12:47:53;;;;;;;4.22;3.92;;;21.80;82.70;;;;;;5896953;29;89193;-69
2022/05/09 12:50:55;;;;;;;4.63;4.22;;;21.80;82.60;;;;;;5893577;29;89656;-68
2022/05/09 12:53:58;;;;;;;4.90;4.50;;;21.80;82.70;;;;;;5900302;29;88367;-69
2022/05/09 12:57:04;;;;;;;4.38;4.07;;;21.80;82.60;;;;;;5905862;29;89024;-68
2022/05/09 13:00:10;;;;;;;4.60;4.20;;;21.80;82.60;;;;;;5908586;29;89621;-68
2022/05/09 13:03:12;;;;;;;4.72;4.32;;;21.80;82.50;;;;;;5907868;29;88954;-68
2022/05/09 13:06:17;;;;;;;4.93;4.53;;;21.80;82.50;;;;;;5902861;29;89069;-68
2022/05/09 13:09:22;;;;;;;4.85;4.45;;;21.80;82.50;;;;;;5902893;29;89638;-69
2022/05/09 13:12:30;;;;;;;4.65;4.25;;;21.80;82.50;;;;;;5902893;29;89187;-68
2022/05/09 13:15:33;;;;;;;4.80;4.40;;;21.80;82.50;;;;;;5904246;29;89168;-68
2022/05/09 13:18:37;;;;;;;4.43;4.03;;;21.80;82.40;;;;;;5912925;29;88265;-69
2022/05/09 13:21:41;;;;;;;4.57;4.20;;;21.80;82.30;;;;;;5902680;29;89330;-68
2022/05/09 13:24:44;;;;;;;4.72;4.35;;;21.80;82.30;;;;;;5914643;29;88658;-69
2022/05/09 13:27:51;;;;;;;4.20;3.90;;;21.90;82.30;;;;;;5902664;29;89185;-67
2022/05/09 13:30:55;;;;;;;4.93;4.53;;;21.80;82.30;;;;;;5902717;29;89246;-69
2022/05/09 13:33:57;;;;;;;4.57;4.28;;;21.90;82.30;;;;;;5903442;29;90370;-69
2022/05/09 13:37:01;;;;;;;4.38;4.07;;;21.80;82.20;;;;;;5912911;29;89171;-69
2022/05/09 13:40:08;;;;;;;4.63;4.13;;;21.90;82.20;;;;;;5895327;29;88066;-69
2022/05/09 13:43:15;;;;;;;4.47;4.10;;;21.80;82.30;;;;;;5899049;29;89188;-69
2022/05/09 13:46:23;;;;;;;4.68;4.32;;;21.90;82.40;;;;;;5905067;29;88330;-69
2022/05/09 13:49:26;;;;;;;4.60;4.20;;;21.90;82.30;;;;;;5905257;29;89145;-68
2022/05/09 13:52:31;;;;;;;4.80;4.40;;;21.80;82.20;;;;;;5899727;29;89004;-69
2022/05/09 13:55:36;;;;;;;4.65;4.30;;;21.90;82.20;;;;;;5903946;29;88430;-69
2022/05/09 13:58:41;;;;;;;5.32;4.22;;;21.80;82.10;;;;;;5899573;29;89110;-69
2022/05/09 14:01:45;;;;;;;4.65;4.25;;;21.80;82.10;;;;;;5907654;29;89337;-69
2022/05/09 14:04:59;;;;;;;4.38;4.07;;;21.90;82.20;;;;;;5899092;29;90451;-69
2022/05/09 14:08:04;;;;;;;4.40;4.10;;;21.90;82.20;;;;;;5897604;29;88335;-69
2022/05/09 14:11:08;;;;;;;4.28;3.95;;;21.90;82.20;;;;;;5902064;29;89343;-69
2022/05/09 14:14:33;;;;;;;4.65;4.18;;;21.90;82.10;;;;;;5900522;29;89190;-69
2022/05/09 14:17:40;;;;;;;4.55;4.20;;;21.90;82.20;;;;;;5898425;29;88124;-69
2022/05/09 14:20:43;;;;;;;4.50;4.20;;;21.90;82.20;;;;;;5897928;29;88000;-69
2022/05/09 14:23:47;;;;;;;4.45;4.15;;;21.90;82.30;;;;;;5906005;29;90499;-69
2022/05/09 14:30:15;;;;;;;4.47;4.18;;;21.90;82.40;;;;;;5914352;29;87369;-69
2022/05/09 14:33:36;;;;;;;4.53;4.22;;;21.90;82.50;;;;;;5904092;29;89280;-69
2022/05/09 14:36:38;;;;;;;4.78;4.38;;;21.90;82.50;;;;;;5901787;29;90444;-69
2022/05/09 14:39:42;;;;;;;4.15;3.85;;;21.90;82.60;;;;;;5897747;29;89460;-69
2022/05/09 14:43:08;;;;;;;4.40;4.10;;;21.90;82.80;;;;;;5901636;29;88012;-69
2022/05/09 14:46:11;;;;;;;4.30;4.00;;;21.90;82.90;;;;;;5887484;29;89585;-68
2022/05/09 14:49:18;;;;;;;5.05;4.32;;;21.90;83.00;;;;;;5901832;29;89096;-69
2022/05/09 14:52:30;;;;;;;4.05;3.75;;;21.90;83.00;;;;;;5898278;29;89247;-69
2022/05/09 14:59:15;;;;;;;4.25;3.95;;;21.90;83.20;;;;;;5911944;29;86643;-69
2022/05/09 15:02:24;;;;;;;4.25;3.95;;;21.90;83.20;;;;;;5901880;29;87912;-68
2022/05/09 15:05:26;;;;;;;4.60;4.00;;;21.90;83.30;;;;;;5905011;29;89108;-69
2022/05/09 15:08:28;;;;;;;4.55;4.00;;;21.90;83.30;;;;;;5908632;29;90080;-67
2022/05/09 15:11:34;;;;;;;4.35;3.95;;;21.90;83.30;;;;;;5913120;29;87832;-69
2022/05/09 15:14:36;;;;;;;4.38;3.97;;;21.90;83.20;;;;;;5900673;29;89421;-69
2022/05/09 15:17:39;;;;;;;4.50;4.10;;;21.90;83.30;;;;;;5901193;29;89165;-68
2022/05/09 15:20:41;;;;;;;4.40;4.00;;;21.90;83.20;;;;;;5914951;29;89524;-69
2022/05/09 15:23:44;;;;;;;4.50;4.10;;;21.90;83.20;;;;;;5913927;29;89049;-68
2022/05/09 15:26:51;;;;;;;4.50;4.10;;;21.90;83.20;;;;;;5907044;29;87914;-69
2022/05/09 15:29:54;;;;;;;4.72;4.32;;;21.90;83.30;;;;;;5909132;29;88201;-69
2022/05/09 15:32:58;;;;;;;4.45;4.05;;;21.90;83.50;;;;;;5912785;29;88446;-69
2022/05/09 15:36:00;;;;;;;5.65;4.10;;;21.90;83.30;;;;;;5910032;29;89233;-69
2022/05/09 15:39:03;;;;;;;4.57;4.05;;;21.90;83.30;;;;;;5909709;29;89157;-69
2022/05/09 15:42:07;;;;;;;4.47;4.07;;;21.90;83.30;;;;;;5910133;29;89115;-68
2022/05/09 15:45:12;;;;;;;4.43;4.03;;;21.90;83.30;;;;;;5914602;29;89183;-69
2022/05/09 15:48:16;;;;;;;4.80;4.20;;;21.90;83.20;;;;;;5908856;29;89225;-69
2022/05/09 15:51:18;;;;;;;5.13;4.63;;;21.90;83.30;;;;;;5905866;29;89542;-67
2022/05/09 15:54:20;;;;;;;6.43;4.22;;;22.00;83.50;;;;;;5902814;29;89186;-69
2022/05/09 15:57:24;;;;;;;4.90;4.50;;;22.00;84.10;;;;;;5903003;29;89098;-70
2022/05/09 16:00:30;;;;;;;5.60;4.25;;;21.90;84.10;;;;;;5902861;29;88711;-69
2022/05/09 16:03:35;;;;;;;4.53;4.10;;;21.90;83.90;;;;;;5907579;29;89162;-69
2022/05/09 16:13:17;;;;;;;4.57;4.18;;;21.90;84.00;;;;;;5903704;29;88147;-68
2022/05/09 16:16:24;;;;;;;4.60;4.20;;;21.90;83.90;;;;;;5906521;29;89395;-69
2022/05/09 16:19:32;;;;;;;4.75;4.35;;;21.90;84.00;;;;;;5898414;29;89131;-69
2022/05/09 16:22:35;;;;;;;5.28;4.45;;;21.90;83.90;;;;;;5905781;29;89210;-68
2022/05/09 16:25:38;;;;;;;4.75;4.32;;;21.90;84.00;;;;;;5914207;29;89130;-69
2022/05/09 16:28:42;;;;;;;4.95;4.45;;;21.90;84.10;;;;;;5903696;29;89057;-67
2022/05/09 16:31:45;;;;;;;4.80;4.40;;;22.00;84.00;;;;;;5892096;29;87834;-68
2022/05/09 16:34:51;;;;;;;4.30;3.90;;;22.00;84.00;;;;;;5903783;29;88888;-67
2022/05/09 16:37:55;;;;;;;5.30;4.30;;;21.90;83.90;;;;;;5903634;29;89296;-69
2022/05/09 16:40:57;;;;;;;4.47;4.18;;;21.90;83.80;;;;;;5903534;29;90505;-66
2022/05/09 16:44:00;;;;;;;4.32;3.92;;;21.90;83.80;;;;;;5903395;29;88777;-68